Terminal Aerodrome Forecast
Issued by NWS

Home | Current Version | Previous Version | Text Only | Print | Product List | Glossary On
Versions: 1 2 3 4 5 6 7 8 9 10 11 12 13 14 15 16
000
FTAK31 PAFA 251736
TAFAFA
TAF
PAFA 251736Z 2518/2624 VRB03KT P6SM -RA SCT012 BKN026 OVC090
     FM252100 25005KT P6SM VCSH BKN025 BKN040 OVC080
     FM260000 25005KT P6SM BKN050
     FM260900 VRB03KT P6SM BKN100 BKN250=

USA.gov is the U.S. government's official web portal to all federal, state and local government web resources and services.